Time;durP1;ratioP1;P1;durP2;ratioP2;P2;SDS_P1;SDS_P2;PMS_P1;PMS_P2;Temp;Humidity;BMP_temperature;BMP_pressure;BME280_temperature;BME280_humidity;BME280_pressure;Samples;Min_cycle;Max_cycle;Signal;HPM_P1;HPM_P2
2021/09/02 00:02:01;;;;;;;;;;;;;;;-142.75;88.34;77767.31;4993363;28;19913;-78
2021/09/02 00:04:30;;;;;;;;;;;;;;;-142.75;88.24;77767.31;4994032;28;19914;-79
2021/09/02 00:06:56;;;;;;;;;;;;;;;-142.75;88.39;77769.28;5060288;28;19936;-79
2021/09/02 00:09:21;;;;;;;;;;;;;;;-142.75;88.24;77763.38;5060532;28;20376;-78
2021/09/02 00:11:46;;;;;;;;;;;;;;;-142.75;88.02;77759.44;4992640;28;19913;-78
2021/09/02 00:14:11;;;;;;;;;;;;;;;-142.75;87.49;77755.50;4993729;28;19914;-78
2021/09/02 00:16:36;;;;;;;;;;;;;;;-142.75;86.77;77751.56;5059625;28;19917;-78
2021/09/02 00:19:02;;;;;;;;;;;;;;;-142.75;86.15;77745.66;4993164;28;19914;-78
2021/09/02 00:21:27;;;;;;;;;;;;;;;-142.75;85.33;77741.72;5060290;28;20307;-78
2021/09/02 00:23:52;;;;;;;;;;;;;;;-142.75;84.52;77739.75;5060314;28;19920;-78
2021/09/02 00:26:17;;;;;;;;;;;;;;;-142.75;83.89;77737.78;4993211;28;19914;-79
2021/09/02 00:28:42;;;;;;;;;;;;;;;-142.75;83.04;77735.81;5060204;28;19981;-78
2021/09/02 00:31:08;;;;;;;;;;;;;;;-142.75;82.17;77737.78;4992366;28;19967;-79
2021/09/02 00:33:33;;;;;;;;;;;;;;;-142.75;81.51;77739.75;4992853;28;20283;-79
2021/09/02 00:35:58;;;;;;;;;;;;;;;-142.75;80.88;77743.69;5059909;28;19925;-78
2021/09/02 00:38:24;;;;;;;;;;;;;;;-142.75;80.33;77743.69;4995969;28;19914;-78
2021/09/02 00:40:49;;;;;;;;;;;;;;;-142.75;80.23;77747.63;4996375;28;19929;-78
2021/09/02 00:43:14;;;;;;;;;;;;;;;-142.75;79.61;77749.59;4996557;28;20428;-79
2021/09/02 00:45:39;;;;;;;;;;;;;;;-142.75;78.79;77739.75;5062776;28;19997;-78
2021/09/02 00:48:05;;;;;;;;;;;;;;;-142.75;78.16;77743.69;4995736;28;19945;-79
2021/09/02 00:50:30;;;;;;;;;;;;;;;-142.75;78.68;77739.75;4995908;28;19946;-78
2021/09/02 00:52:57;;;;;;;;;;;;;;;-142.75;79.08;77755.50;5063809;28;19917;-78
2021/09/02 00:55:22;;;;;;;;;;;;;;;-142.75;79.04;77749.59;4996391;28;19924;-79
2021/09/02 00:57:47;;;;;;;;;;;;;;;-142.75;79.45;77755.50;4995721;28;19945;-77
2021/09/02 01:00:14;;;;;;;;;;;;;;;-142.75;79.22;77757.47;5063031;28;20367;-78
2021/09/02 01:02:44;;;;;;;;;;;;;;;-142.75;78.24;77755.50;5063124;28;19943;-79
2021/09/02 01:05:10;;;;;;;;;;;;;;;-142.75;77.36;77755.50;4995349;28;19917;-78
2021/09/02 01:07:36;;;;;;;;;;;;;;;-142.75;77.11;77759.44;4995394;28;19914;-78
2021/09/02 01:10:03;;;;;;;;;;;;;;;-142.75;76.99;77767.31;4995454;28;19913;-78
2021/09/02 01:12:36;;;;;;;;;;;;;;;-142.75;77.21;77771.25;5062840;28;19945;-79
2021/09/02 01:15:02;;;;;;;;;;;;;;;-142.75;77.42;77779.13;5062144;28;19932;-79
2021/09/02 01:17:28;;;;;;;;;;;;;;;-142.75;77.78;77773.22;5062246;28;19949;-78
2021/09/02 01:19:54;;;;;;;;;;;;;;;-142.75;78.29;77777.16;5062808;28;19935;-79
2021/09/02 01:22:21;;;;;;;;;;;;;;;-142.75;78.45;77779.13;5063084;28;20352;-78
2021/09/02 01:24:46;;;;;;;;;;;;;;;-142.75;78.48;77781.09;4995936;28;19941;-79
2021/09/02 01:27:11;;;;;;;;;;;;;;;-142.75;78.54;77787.00;4995517;28;20267;-79
2021/09/02 01:29:36;;;;;;;;;;;;;;;-142.75;78.61;77781.09;5063144;28;19914;-79
2021/09/02 01:32:02;;;;;;;;;;;;;;;-142.75;79.01;77788.97;5062632;28;19914;-79
2021/09/02 01:34:27;;;;;;;;;;;;;;;-142.75;79.50;77796.84;4995672;28;20413;-78
2021/09/02 01:36:52;;;;;;;;;;;;;;;-142.75;79.81;77802.75;5062578;28;19918;-78
2021/09/02 01:39:18;;;;;;;;;;;;;;;-142.75;80.20;77810.63;4995551;28;19913;-79
2021/09/02 01:41:43;;;;;;;;;;;;;;;-142.75;80.01;77822.44;5062696;28;19921;-79
2021/09/02 01:44:08;;;;;;;;;;;;;;;-142.75;80.90;77822.44;4995966;28;19983;-78
2021/09/02 01:46:34;;;;;;;;;;;;;;;-142.75;81.40;77818.50;4994960;28;19913;-78
2021/09/02 01:48:59;;;;;;;;;;;;;;;-142.75;81.70;77804.72;4994898;28;19917;-78
2021/09/02 01:51:24;;;;;;;;;;;;;;;-142.75;81.79;77802.75;5062180;28;19955;-79
2021/09/02 01:53:49;;;;;;;;;;;;;;;-142.75;82.74;77802.75;5062733;28;20371;-79
2021/09/02 01:56:14;;;;;;;;;;;;;;;-142.75;82.64;77808.66;5063242;28;19925;-78
2021/09/02 01:58:40;;;;;;;;;;;;;;;-142.75;82.75;77806.69;5063865;28;19914;-78
2021/09/02 02:01:05;;;;;;;;;;;;;;;-142.75;82.97;77806.69;5062200;28;19939;-78
2021/09/02 02:03:30;;;;;;;;;;;;;;;-142.75;83.00;77810.63;5062662;28;19913;-78
2021/09/02 02:05:55;;;;;;;;;;;;;;;-142.75;82.46;77804.72;5062053;28;19921;-78
2021/09/02 02:08:20;;;;;;;;;;;;;;;-142.75;82.37;77794.88;4994913;28;19959;-78
2021/09/02 02:10:45;;;;;;;;;;;;;;;-142.75;81.48;77792.91;5061365;28;20375;-78
2021/09/02 02:13:11;;;;;;;;;;;;;;;-142.75;81.08;77785.03;4994344;28;19918;-78
2021/09/02 02:15:36;;;;;;;;;;;;;;;-142.75;81.08;77783.06;4994176;28;19918;-77
2021/09/02 02:18:01;;;;;;;;;;;;;;;-142.75;80.81;77779.13;5061603;28;19920;-78
2021/09/02 02:20:26;;;;;;;;;;;;;;;-142.75;81.62;77771.25;5061761;28;20424;-78
2021/09/02 02:22:52;;;;;;;;;;;;;;;-142.75;83.21;77781.09;5062223;28;19914;-79
2021/09/02 02:25:17;;;;;;;;;;;;;;;-142.75;83.46;77779.13;4994927;28;20434;-78
2021/09/02 02:27:43;;;;;;;;;;;;;;;-142.75;83.82;77783.06;5061620;28;19920;-78
2021/09/02 02:30:10;;;;;;;;;;;;;;;-142.75;84.66;77787.00;4994191;28;20040;-78
2021/09/02 02:32:35;;;;;;;;;;;;;;;-142.75;85.15;77794.88;5061994;28;19920;-79
2021/09/02 02:35:01;;;;;;;;;;;;;;;-142.75;85.45;77798.81;5061736;28;19918;-78
2021/09/02 02:37:26;;;;;;;;;;;;;;;-142.75;85.99;77800.78;5062085;28;19913;-78
2021/09/02 02:39:51;;;;;;;;;;;;;;;-142.75;86.62;77806.69;5061641;28;19953;-78
2021/09/02 02:42:16;;;;;;;;;;;;;;;-142.75;85.79;77812.59;5062293;28;19914;-78
2021/09/02 02:44:42;;;;;;;;;;;;;;;-142.75;85.05;77818.50;5062687;28;19914;-78
2021/09/02 02:47:07;;;;;;;;;;;;;;;-142.75;84.47;77814.56;5061592;28;19921;-79
2021/09/02 02:49:33;;;;;;;;;;;;;;;-142.75;84.42;77806.69;5060696;28;19913;-79
2021/09/02 02:51:58;;;;;;;;;;;;;;;-142.75;84.47;77804.72;4993196;28;19913;-79
2021/09/02 02:54:24;;;;;;;;;;;;;;;-142.75;84.51;77792.91;4993081;28;19932;-79
2021/09/02 02:56:49;;;;;;;;;;;;;;;-142.75;84.83;77802.75;5060394;28;19921;-79
2021/09/02 02:59:14;;;;;;;;;;;;;;;-142.75;85.29;77808.66;4992118;28;20359;-79
2021/09/02 03:01:39;;;;;;;;;;;;;;;-142.75;85.84;77808.66;5059875;28;19929;-79
2021/09/02 03:04:05;;;;;;;;;;;;;;;-142.75;86.42;77816.53;4993153;28;19914;-78
2021/09/02 03:06:30;;;;;;;;;;;;;;;-142.75;86.71;77820.47;5016425;23;19918;-73
2021/09/02 03:08:55;;;;;;;;;;;;;;;-142.75;86.29;77798.81;4967525;28;19929;-74
2021/09/02 03:11:20;;;;;;;;;;;;;;;-142.75;85.85;77806.69;5034461;28;19914;-74
2021/09/02 03:13:46;;;;;;;;;;;;;;;-142.75;85.48;77800.78;5036600;28;19914;-74
2021/09/02 03:16:11;;;;;;;;;;;;;;;-142.75;85.33;77794.88;4969809;28;19973;-74
2021/09/02 03:18:36;;;;;;;;;;;;;;;-142.75;85.53;77800.78;4988075;28;19966;-75
2021/09/02 03:21:01;;;;;;;;;;;;;;;-142.75;85.64;77787.00;4984044;28;20371;-74
2021/09/02 03:23:27;;;;;;;;;;;;;;;-142.75;85.74;77796.84;4970304;28;19929;-74
2021/09/02 03:25:52;;;;;;;;;;;;;;;-142.75;86.12;77798.81;4969480;28;19984;-74
2021/09/02 03:28:17;;;;;;;;;;;;;;;-142.75;86.67;77794.88;4969790;28;20055;-74
2021/09/02 03:30:42;;;;;;;;;;;;;;;-142.75;87.25;77802.75;5036108;28;19921;-74
2021/09/02 03:33:07;;;;;;;;;;;;;;;-142.75;87.44;77800.78;5036257;28;19914;-74
2021/09/02 03:35:33;;;;;;;;;;;;;;;-142.75;87.87;77800.78;4969675;28;20299;-74
2021/09/02 03:37:58;;;;;;;;;;;;;;;-142.75;88.13;77814.56;5036094;28;20342;-75
2021/09/02 03:40:23;;;;;;;;;;;;;;;-142.75;86.40;77814.56;5048722;28;20367;-74
2021/09/02 03:42:48;;;;;;;;;;;;;;;-142.75;86.29;77816.53;4988250;28;19920;-75
2021/09/02 03:45:14;;;;;;;;;;;;;;;-142.75;86.85;77800.78;4988616;28;19913;-74
2021/09/02 03:47:44;;;;;;;;;;;;;;;-142.75;86.87;77794.88;4988847;28;19914;-74
2021/09/02 03:50:09;;;;;;;;;;;;;;;-142.75;87.27;77794.88;4988393;28;19917;-75
2021/09/02 03:52:34;;;;;;;;;;;;;;;-142.75;87.67;77802.75;4988787;28;19966;-75
2021/09/02 03:55:00;;;;;;;;;;;;;;;-142.75;88.17;77806.69;4969281;28;20280;-74
2021/09/02 03:57:25;;;;;;;;;;;;;;;-142.75;88.78;77818.50;5035793;28;20008;-74
2021/09/02 03:59:50;;;;;;;;;;;;;;;-142.75;89.15;77814.56;4968951;28;19937;-73
2021/09/02 04:02:15;;;;;;;;;;;;;;;-142.75;89.59;77808.66;4969389;28;19914;-75
2021/09/02 04:04:40;;;;;;;;;;;;;;;-142.75;89.75;77802.75;5035803;28;20162;-75
2021/09/02 04:07:05;;;;;;;;;;;;;;;-142.75;89.56;77794.88;5035595;28;19921;-74
2021/09/02 04:09:31;;;;;;;;;;;;;;;-142.75;88.70;77800.78;4969133;28;19918;-74
2021/09/02 04:11:57;;;;;;;;;;;;;;;-142.75;88.46;77790.94;5035085;28;19925;-74
2021/09/02 04:14:22;;;;;;;;;;;;;;;-142.75;88.75;77792.91;5035591;28;20273;-74
2021/09/02 04:16:47;;;;;;;;;;;;;;;-142.75;89.14;77802.75;5035759;28;19950;-74
2021/09/02 04:19:12;;;;;;;;;;;;;;;-142.75;89.28;77798.81;5035725;28;19953;-74
2021/09/02 04:21:37;;;;;;;;;;;;;;;-142.75;89.88;77802.75;5035821;28;20005;-75
2021/09/02 04:24:03;;;;;;;;;;;;;;;-142.75;90.05;77802.75;4969035;28;19940;-74
2021/09/02 04:26:28;;;;;;;;;;;;;;;-142.75;90.44;77806.69;4968998;28;20027;-75
2021/09/02 04:28:53;;;;;;;;;;;;;;;-142.75;90.45;77798.81;5035300;28;19921;-74
2021/09/02 04:31:18;;;;;;;;;;;;;;;-142.75;90.46;77800.78;4968741;28;19971;-74
2021/09/02 04:33:43;;;;;;;;;;;;;;;-142.75;90.23;77812.59;4969065;28;19925;-74
2021/09/02 04:36:08;;;;;;;;;;;;;;;-142.75;90.03;77814.56;4968721;28;20383;-74
2021/09/02 04:38:34;;;;;;;;;;;;;;;-142.75;90.47;77812.59;4968978;28;19928;-74
2021/09/02 04:40:59;;;;;;;;;;;;;;;-142.75;90.50;77806.69;5035103;28;20291;-74
2021/09/02 04:43:24;;;;;;;;;;;;;;;-142.75;90.38;77796.84;4968761;28;19967;-74
2021/09/02 04:45:49;;;;;;;;;;;;;;;-142.75;90.31;77812.59;4968731;28;19914;-74
2021/09/02 04:48:16;;;;;;;;;;;;;;;-142.75;90.49;77810.63;4968763;28;20403;-74
2021/09/02 04:50:42;;;;;;;;;;;;;;;-142.75;90.79;77812.59;4968365;28;19921;-74
2021/09/02 04:53:07;;;;;;;;;;;;;;;-142.75;91.13;77822.44;4978379;28;20421;-75
2021/09/02 04:55:33;;;;;;;;;;;;;;;-142.75;91.63;77818.50;5054989;28;19971;-74
2021/09/02 04:57:58;;;;;;;;;;;;;;;-142.75;91.42;77826.38;5054664;28;19960;-74
2021/09/02 05:00:23;;;;;;;;;;;;;;;-142.75;91.31;77812.59;4987512;28;19939;-74
2021/09/02 05:02:48;;;;;;;;;;;;;;;-142.75;91.13;77810.63;4988062;28;19925;-75
2021/09/02 05:05:13;;;;;;;;;;;;;;;-142.75;91.17;77818.50;5054844;28;19914;-74
2021/09/02 05:07:38;;;;;;;;;;;;;;;-142.75;91.34;77814.56;4987663;28;19914;-74
2021/09/02 05:10:05;;;;;;;;;;;;;;;-142.75;91.23;77802.75;5054695;28;20307;-74
2021/09/02 05:12:30;;;;;;;;;;;;;;;-142.75;90.73;77796.84;4987427;28;20478;-74
2021/09/02 05:14:55;;;;;;;;;;;;;;;-142.75;90.66;77806.69;4987596;28;20000;-74
2021/09/02 05:17:20;;;;;;;;;;;;;;;-142.75;90.69;77814.56;4987592;28;19926;-75
2021/09/02 05:19:45;;;;;;;;;;;;;;;-142.75;89.57;77804.72;4970823;28;19965;-73
2021/09/02 05:22:11;;;;;;;;;;;;;;;-142.75;89.29;77796.84;4968800;28;19918;-74
2021/09/02 05:24:36;;;;;;;;;;;;;;;-142.75;89.38;77798.81;4971415;28;19922;-74
2021/09/02 05:27:01;;;;;;;;;;;;;;;-142.75;89.92;77792.91;5038213;28;19949;-74
2021/09/02 05:29:26;;;;;;;;;;;;;;;-142.75;90.51;77796.84;4971392;28;20012;-74
2021/09/02 05:31:52;;;;;;;;;;;;;;;-142.75;90.54;77788.97;4971391;28;20626;-75
2021/09/02 05:34:17;;;;;;;;;;;;;;;-142.75;90.71;77787.00;4971318;28;19968;-74
2021/09/02 05:36:42;;;;;;;;;;;;;;;-142.75;90.49;77783.06;4971449;28;19925;-74
2021/09/02 05:39:07;;;;;;;;;;;;;;;-142.75;90.74;77790.94;5038523;28;19921;-74
2021/09/02 05:41:32;;;;;;;;;;;;;;;-142.75;91.01;77792.91;4971097;28;19918;-75
2021/09/02 05:43:58;;;;;;;;;;;;;;;-142.75;91.10;77779.13;5038154;28;19980;-75
2021/09/02 05:46:23;;;;;;;;;;;;;;;-142.75;90.97;77783.06;5038110;28;19914;-74
2021/09/02 05:48:48;;;;;;;;;;;;;;;-142.75;90.49;77775.19;4971262;28;20379;-75
2021/09/02 05:51:13;;;;;;;;;;;;;;;-142.75;90.19;77775.19;5042701;28;19914;-75
2021/09/02 05:53:38;;;;;;;;;;;;;;;-142.75;79.84;77739.75;4980781;28;20405;-75
2021/09/02 05:56:04;;;;;;;;;;;;;;;-142.75;75.00;77725.97;5037837;28;19925;-74
2021/09/02 05:58:30;;;;;;;;;;;;;;;-142.75;70.68;77706.25;4971143;28;19921;-75
2021/09/02 06:00:55;;;;;;;;;;;;;;;-142.75;72.27;77712.16;5036659;28;20300;-76
2021/09/02 06:03:20;;;;;;;;;;;;;;;-142.75;66.02;77712.16;4973016;28;19914;-75
2021/09/02 06:05:45;;;;;;;;;;;;;;;-142.75;66.94;77696.41;4971932;28;19917;-74
2021/09/02 06:08:10;;;;;;;;;;;;;;;-142.75;68.82;77680.66;5055321;28;19914;-74
2021/09/02 06:10:36;;;;;;;;;;;;;;;-142.75;70.70;77680.66;5038612;28;20332;-74
2021/09/02 06:13:01;;;;;;;;;;;;;;;-142.75;72.33;77678.69;4971128;28;19925;-75
2021/09/02 06:15:26;;;;;;;;;;;;;;;-142.75;73.80;77676.72;4971163;28;19972;-75
2021/09/02 06:17:52;;;;;;;;;;;;;;;-142.75;74.66;77670.81;4971430;28;19920;-75
2021/09/02 06:20:17;;;;;;;;;;;;;;;-142.75;75.08;77670.81;4971202;28;20628;-74
2021/09/02 06:22:42;;;;;;;;;;;;;;;-142.75;76.04;77660.97;4971780;28;19921;-75
2021/09/02 06:25:08;;;;;;;;;;;;;;;-142.75;77.38;77645.22;4971848;28;19914;-75
2021/09/02 06:27:33;;;;;;;;;;;;;;;-142.75;77.58;77625.53;4971151;28;20399;-75
2021/09/02 06:29:58;;;;;;;;;;;;;;;-142.75;77.43;77607.81;4970899;28;19914;-75
2021/09/02 06:32:23;;;;;;;;;;;;;;;-142.75;76.95;77590.09;5038957;28;19914;-76
2021/09/02 06:34:49;;;;;;;;;;;;;;;-142.75;76.34;77570.41;4970770;28;20071;-75
2021/09/02 06:37:14;;;;;;;;;;;;;;;-142.75;75.33;77558.59;5036584;28;19922;-75
2021/09/02 06:39:39;;;;;;;;;;;;;;;-142.75;74.29;77544.81;4969956;28;20001;-74
2021/09/02 06:42:05;;;;;;;;;;;;;;;-142.75;67.94;77546.78;5048709;28;19988;-75
2021/09/02 06:44:30;;;;;;;;;;;;;;;-142.75;64.19;77538.91;4989608;28;19914;-75
2021/09/02 06:46:55;;;;;;;;;;;;;;;-142.75;63.36;77529.06;4989752;28;19918;-75
2021/09/02 06:49:20;;;;;;;;;;;;;;;-142.75;63.02;77517.25;4989794;28;19914;-75
2021/09/02 06:51:46;;;;;;;;;;;;;;;-142.75;60.80;77519.22;4989019;28;19918;-75
2021/09/02 06:54:11;;;;;;;;;;;;;;;-142.75;61.73;77519.22;5056460;28;19929;-75
2021/09/02 06:56:36;;;;;;;;;;;;;;;-142.75;63.82;77515.28;4989301;28;19918;-75
2021/09/02 06:59:01;;;;;;;;;;;;;;;-142.75;61.16;77531.03;4989932;28;19918;-76
2021/09/02 07:01:27;;;;;;;;;;;;;;;-142.75;61.62;77531.03;5056333;28;19913;-74
2021/09/02 07:03:52;;;;;;;;;;;;;;;-142.75;59.94;77534.97;4989910;28;19939;-76
2021/09/02 07:06:17;;;;;;;;;;;;;;;-142.75;61.62;77536.94;4988232;28;19945;-76
2021/09/02 07:08:42;;;;;;;;;;;;;;;-142.75;60.89;77536.94;4973191;28;19914;-75
2021/09/02 07:11:08;;;;;;;;;;;;;;;-142.75;61.44;77534.97;5036407;28;19977;-75
2021/09/02 07:13:33;;;;;;;;;;;;;;;-142.75;60.11;77538.91;4970614;28;19915;-76
2021/09/02 07:15:58;;;;;;;;;;;;;;;-142.75;61.54;77517.25;4977384;28;20296;-75
2021/09/02 07:18:23;;;;;;;;;;;;;;;-142.75;60.94;77507.41;5035002;28;20295;-75
2021/09/02 07:20:48;;;;;;;;;;;;;;;-142.75;61.00;77493.63;5035150;28;19919;-75
2021/09/02 07:23:14;;;;;;;;;;;;;;;-142.75;61.07;77485.75;4976721;28;19922;-75
2021/09/02 07:25:39;;;;;;;;;;;;;;;-142.75;63.22;77487.72;5038898;28;19928;-75
2021/09/02 07:28:04;;;;;;;;;;;;;;;-142.75;62.15;77466.03;4978006;28;19982;-76
2021/09/02 07:30:29;;;;;;;;;;;;;;;-142.75;62.90;77448.34;4982873;28;19914;-74
2021/09/02 07:32:54;;;;;;;;;;;;;;;-142.75;62.44;77420.75;4980992;28;19918;-75
2021/09/02 07:35:20;;;;;;;;;;;;;;;-142.75;61.34;77403.03;5035159;28;20012;-74
2021/09/02 07:37:45;;;;;;;;;;;;;;;-142.75;61.08;77397.13;4970079;28;21075;-74
2021/09/02 07:40:11;;;;;;;;;;;;;;;-142.75;60.91;77389.25;5035570;28;20348;-74
2021/09/02 07:42:36;;;;;;;;;;;;;;;-142.75;60.70;77385.31;4975015;28;19914;-75
2021/09/02 07:45:02;;;;;;;;;;;;;;;-142.75;60.44;77389.25;5035262;28;19918;-74
2021/09/02 07:47:27;;;;;;;;;;;;;;;-142.75;57.92;77424.69;4968989;28;20009;-74
2021/09/02 07:49:53;;;;;;;;;;;;;;;-142.75;59.06;77426.66;4970257;28;19921;-75
2021/09/02 07:52:18;;;;;;;;;;;;;;;-142.75;60.04;77420.75;5035936;28;20423;-74
2021/09/02 07:54:43;;;;;;;;;;;;;;;-142.75;57.80;77438.47;4975815;28;19961;-75
2021/09/02 07:57:08;;;;;;;;;;;;;;;-142.75;58.15;77440.44;5043597;28;19925;-74
2021/09/02 07:59:33;;;;;;;;;;;;;;;-142.75;61.51;77408.94;5055412;28;19961;-74
2021/09/02 08:01:58;;;;;;;;;;;;;;;-142.75;58.91;77410.91;4988310;28;19914;-75
2021/09/02 08:04:25;;;;;;;;;;;;;;;-142.75;58.60;77420.75;5055176;28;20276;-75
2021/09/02 08:06:50;;;;;;;;;;;;;;;-142.75;58.19;77444.38;4988294;28;19992;-75
2021/09/02 08:09:15;;;;;;;;;;;;;;;-142.75;59.44;77440.44;5055819;28;20415;-75
2021/09/02 08:11:40;;;;;;;;;;;;;;;-142.75;58.91;77403.03;4987969;28;19914;-74
2021/09/02 08:14:05;;;;;;;;;;;;;;;-142.75;59.24;77389.25;4988389;28;19921;-75
2021/09/02 08:16:31;;;;;;;;;;;;;;;-142.75;57.82;77401.06;4988460;28;19967;-74
2021/09/02 08:18:58;;;;;;;;;;;;;;;-142.75;56.59;77412.88;5055164;28;20387;-74
2021/09/02 08:21:23;;;;;;;;;;;;;;;-142.75;58.87;77410.91;5040497;28;19918;-75
2021/09/02 08:23:48;;;;;;;;;;;;;;;-142.75;57.38;77420.75;4992001;28;20477;-76
2021/09/02 08:26:14;;;;;;;;;;;;;;;-142.75;56.32;77448.34;5055487;28;20029;-75
2021/09/02 08:28:39;;;;;;;;;;;;;;;-142.75;56.98;77468.03;4988040;28;19937;-74
2021/09/02 08:31:04;;;;;;;;;;;;;;;-142.75;56.42;77468.03;4986239;28;19913;-75
2021/09/02 08:33:29;;;;;;;;;;;;;;;-142.75;56.28;77460.13;4969071;28;19985;-74
2021/09/02 08:35:54;;;;;;;;;;;;;;;-142.75;58.06;77430.59;4968831;28;20072;-75
2021/09/02 08:38:20;;;;;;;;;;;;;;;-142.75;56.34;77440.44;5035400;28;19914;-76
2021/09/02 08:40:45;;;;;;;;;;;;;;;-142.75;55.94;77448.34;4968614;28;19914;-75
2021/09/02 08:43:11;;;;;;;;;;;;;;;-142.75;57.88;77432.56;4968290;28;19959;-75
2021/09/02 08:45:36;;;;;;;;;;;;;;;-142.75;56.75;77428.63;5035111;28;19921;-76
2021/09/02 08:48:02;;;;;;;;;;;;;;;-142.75;56.38;77424.69;4968693;28;20349;-76
2021/09/02 08:50:28;;;;;;;;;;;;;;;-142.75;55.38;77456.22;5034874;28;19910;-75
2021/09/02 08:52:54;;;;;;;;;;;;;;;-142.75;55.91;77452.25;4976990;28;20414;-74
2021/09/02 08:55:19;;;;;;;;;;;;;;;-142.75;56.00;77489.69;4970140;28;19918;-74
2021/09/02 08:57:48;;;;;;;;;;;;;;;-142.75;56.09;77471.97;4971885;28;19932;-75
2021/09/02 09:00:14;;;;;;;;;;;;;;;-142.75;56.63;77475.91;4983444;28;19921;-74
2021/09/02 09:02:46;;;;;;;;;;;;;;;-142.75;57.54;77444.38;4971777;28;20376;-75
2021/09/02 09:05:13;;;;;;;;;;;;;;;-142.75;55.03;77434.53;4971703;28;19925;-75
2021/09/02 09:07:45;;;;;;;;;;;;;;;-142.75;54.66;77424.69;4987894;28;19982;-75
2021/09/02 09:10:14;;;;;;;;;;;;;;;-142.75;55.24;77420.75;5059024;28;19921;-76
2021/09/02 09:12:41;;;;;;;;;;;;;;;-142.75;55.95;77401.06;4991478;28;19914;-75
2021/09/02 09:15:08;;;;;;;;;;;;;;;-142.75;54.76;77416.81;4990982;28;19918;-75
2021/09/02 09:17:33;;;;;;;;;;;;;;;-142.75;54.54;77408.94;5053643;28;20383;-75
2021/09/02 09:19:58;;;;;;;;;;;;;;;-142.75;54.89;77414.84;4970743;28;20005;-75
2021/09/02 09:22:25;;;;;;;;;;;;;;;-142.75;54.50;77418.78;4971197;28;19914;-76
2021/09/02 09:24:50;;;;;;;;;;;;;;;-142.75;55.09;77389.25;4970598;28;20389;-75
2021/09/02 09:27:17;;;;;;;;;;;;;;;-142.75;55.07;77343.97;5038549;28;20031;-76
2021/09/02 09:29:43;;;;;;;;;;;;;;;-142.75;54.29;77308.53;4970065;28;19917;-76
2021/09/02 09:32:16;;;;;;;;;;;;;;;-142.75;55.21;77275.06;4971059;28;19921;-75
2021/09/02 09:34:49;;;;;;;;;;;;;;;-142.75;54.53;77243.56;4971092;28;20295;-75
2021/09/02 09:37:14;;;;;;;;;;;;;;;-142.75;54.19;77217.97;4971163;28;19991;-75
2021/09/02 09:39:39;;;;;;;;;;;;;;;-142.75;53.12;77204.19;5038264;28;19956;-76
2021/09/02 09:42:06;;;;;;;;;;;;;;;-142.75;52.56;77168.75;5037530;28;19914;-76
2021/09/02 09:44:32;;;;;;;;;;;;;;;-142.75;50.80;77229.78;5038587;28;20372;-74
2021/09/02 09:47:00;;;;;;;;;;;;;;;-142.75;50.87;77239.63;4986252;28;19921;-75
2021/09/02 09:49:25;;;;;;;;;;;;;;;-142.75;51.90;77239.63;5054225;28;19983;-75
2021/09/02 09:51:50;;;;;;;;;;;;;;;-142.75;52.41;77040.78;5037867;28;20453;-75
2021/09/02 09:54:24;;;;;;;;;;;;;;;-142.75;46.54;76924.63;5040524;28;20058;-75
2021/09/02 09:56:49;;;;;;;;;;;;;;;-142.75;46.35;76897.06;4990447;28;19918;-76
2021/09/02 09:59:14;;;;;;;;;;;;;;;-142.75;46.31;76904.94;4990534;28;19914;-75
2021/09/02 10:01:40;;;;;;;;;;;;;;;-142.75;46.32;77054.56;5057874;28;19977;-75
2021/09/02 10:04:05;;;;;;;;;;;;;;;-142.75;48.24;77086.06;4990514;28;19920;-75
2021/09/02 10:06:32;;;;;;;;;;;;;;;-142.75;47.41;77103.78;5057150;28;20009;-75
2021/09/02 10:08:57;;;;;;;;;;;;;;;-142.75;51.29;76847.84;4989114;28;20354;-75
2021/09/02 10:11:22;;;;;;;;;;;;;;;-142.75;45.33;76751.41;4972906;28;19956;-75
2021/09/02 10:13:48;;;;;;;;;;;;;;;-142.75;43.82;76749.44;4970403;28;19918;-75
2021/09/02 10:16:13;;;;;;;;;;;;;;;-142.75;43.53;76908.88;4978113;28;19917;-75
2021/09/02 10:18:46;;;;;;;;;;;;;;;-142.75;45.21;77003.38;5057269;28;19914;-75
2021/09/02 10:21:13;;;;;;;;;;;;;;;-142.75;47.96;77133.31;4980187;28;19926;-75
2021/09/02 10:23:39;;;;;;;;;;;;;;;-142.75;51.18;77121.50;4985040;28;19925;-75
2021/09/02 10:26:04;;;;;;;;;;;;;;;-142.75;50.09;77086.06;4989823;28;19913;-75
2021/09/02 10:28:33;;;;;;;;;;;;;;;-142.75;51.21;76904.94;5057199;28;19975;-75
2021/09/02 10:31:06;;;;;;;;;;;;;;;-142.75;43.05;76627.38;5054697;28;20425;-75
2021/09/02 10:33:33;;;;;;;;;;;;;;;-142.75;41.67;76712.03;4987844;28;20018;-75
2021/09/02 10:36:00;;;;;;;;;;;;;;;-142.75;42.61;76769.13;4994308;22;19922;-76
2021/09/02 10:38:36;;;;;;;;;;;;;;;-142.75;42.65;76723.84;5037569;28;20357;-77
2021/09/02 10:41:01;;;;;;;;;;;;;;;-142.75;42.92;76830.13;4970735;28;19939;-77
2021/09/02 10:43:46;;;;;;;;;;;;;;;-142.75;43.13;76818.31;5038610;28;20437;-77
2021/09/02 10:46:26;;;;;;;;;;;;;;;-142.75;45.91;76857.69;5039966;28;19920;-78
2021/09/02 10:48:51;;;;;;;;;;;;;;;-142.75;45.68;76867.53;5044036;28;20314;-78
2021/09/02 10:51:32;;;;;;;;;;;;;;;-142.75;46.25;76836.03;4987558;28;19920;-78
2021/09/02 10:54:00;;;;;;;;;;;;;;;-142.75;44.38;76843.91;5044248;28;19996;-78
2021/09/02 10:56:33;;;;;;;;;;;;;;;-142.75;44.86;76964.00;5041630;28;19916;-78
2021/09/02 10:58:58;;;;;;;;;;;;;;;-142.75;47.32;76875.41;5055562;28;19920;-78
2021/09/02 11:01:23;;;;;;;;;;;;;;;-142.75;46.01;76700.22;5052982;28;19918;-77
2021/09/02 11:03:49;;;;;;;;;;;;;;;-142.75;43.29;76843.91;4991519;28;20338;-76
2021/09/02 11:06:17;;;;;;;;;;;;;;;-142.75;44.64;76753.38;4990493;28;19957;-78
2021/09/02 11:08:42;;;;;;;;;;;;;;;-142.75;44.23;76625.41;4974808;28;20302;-79
2021/09/02 11:11:07;;;;;;;;;;;;;;;-142.75;43.19;76576.19;4977397;28;19914;-78
2021/09/02 11:13:33;;;;;;;;;;;;;;;-142.75;41.84;76562.41;5057712;28;20016;-77
2021/09/02 11:16:05;;;;;;;;;;;;;;;-142.75;41.78;76412.81;4979258;28;19918;-79
2021/09/02 11:18:39;;;;;;;;;;;;;;;-142.75;39.90;76369.50;5048184;28;19975;-77
2021/09/02 11:21:09;;;;;;;;;;;;;;;-142.75;39.74;76326.22;4976302;28;19926;-78
2021/09/02 11:23:34;;;;;;;;;;;;;;;-142.75;37.33;76277.00;5046433;28;19921;-78
2021/09/02 11:26:00;;;;;;;;;;;;;;;-142.75;38.43;76426.59;4986103;28;19914;-78
2021/09/02 11:28:25;;;;;;;;;;;;;;;-142.75;38.72;76440.38;4978757;28;19952;-78
2021/09/02 11:30:51;;;;;;;;;;;;;;;-142.75;38.17;76560.44;4974164;28;19979;-78
2021/09/02 11:33:16;;;;;;;;;;;;;;;-142.75;41.42;76674.63;4974222;28;20432;-78
2021/09/02 11:35:42;;;;;;;;;;;;;;;-142.75;41.70;76749.44;4992828;28;19917;-79
2021/09/02 11:38:08;;;;;;;;;;;;;;;-142.75;44.08;76704.16;5060485;28;20371;-79
2021/09/02 11:40:34;;;;;;;;;;;;;;;-142.75;43.23;76613.59;5059477;28;19998;-79
2021/09/02 11:43:00;;;;;;;;;;;;;;;-142.75;42.23;76595.88;4992344;28;20362;-79
2021/09/02 11:45:29;;;;;;;;;;;;;;;-142.75;41.91;76676.59;4972356;28;19953;-79
2021/09/02 11:47:55;;;;;;;;;;;;;;;-142.75;42.08;76686.44;5040590;28;20249;-78
2021/09/02 11:50:21;;;;;;;;;;;;;;;-142.75;42.92;76773.06;4971446;28;19921;-78
2021/09/02 11:52:47;;;;;;;;;;;;;;;-142.75;43.05;76719.91;4979123;28;20010;-79
2021/09/02 11:55:15;;;;;;;;;;;;;;;-142.75;41.75;76714.00;4982201;28;19914;-79
2021/09/02 11:57:41;;;;;;;;;;;;;;;-142.75;42.45;76696.28;5045710;28;19918;-78
2021/09/02 12:00:06;;;;;;;;;;;;;;;-142.75;42.99;76637.22;5042880;28;19999;-79
2021/09/02 12:02:32;;;;;;;;;;;;;;;-142.75;42.16;76570.28;5049779;28;19921;-77
2021/09/02 12:04:57;;;;;;;;;;;;;;;-142.75;40.54;76515.19;4983153;28;19921;-78
2021/09/02 12:07:23;;;;;;;;;;;;;;;-142.75;42.56;76503.38;4977132;28;20376;-78
2021/09/02 12:09:50;;;;;;;;;;;;;;;-142.75;42.58;76554.53;4977560;28;19921;-79
2021/09/02 12:12:32;;;;;;;;;;;;;;;-142.75;42.28;76527.00;4977174;28;19914;-79
2021/09/02 12:14:57;;;;;;;;;;;;;;;-142.75;41.27;76511.25;4979838;28;20012;-79
2021/09/02 12:17:30;;;;;;;;;;;;;;;-142.75;41.68;76552.56;4980766;28;19960;-79
2021/09/02 12:19:57;;;;;;;;;;;;;;;-142.75;42.75;76574.22;5048248;28;19944;-79
2021/09/02 12:22:28;;;;;;;;;;;;;;;-142.75;42.83;76576.19;5054541;28;19914;-78